AEE128 LGAV-LGTS
Flight info
| Callsign | AEE128 |
|---|---|
| Flight time | 0h 40m |
| Altitude | 28000 |
| Route | KRO G33 NEVRA Z507 OSMOS |
| Aircraft | A320/M-SDE3FGHIRWY/LB1 |
Departure
| Time | 2026-05-05 19:16 |
|---|---|
| Airport | Athens Eleftherios Venizelos International Airport (LGAV) |
Arrival
| Time | 2026-05-05 19:57 |
|---|---|
| Airport | Thessaloniki Macedonia International Airport (LGTS) |
| Time | Latitude | Longitude | Altitude | Speed | Heading |
|---|---|---|---|---|---|
| 2026-05-05 18:58 | 37.93747 | 23.94975 | 300 ft | 0 kts | 306° |
| 2026-05-05 19:08 | 37.93744 | 23.94980 | 301 ft | 3 kts | 306° |
| 2026-05-05 19:08 | 37.93734 | 23.94998 | 302 ft | 3 kts | 306° |
| 2026-05-05 19:08 | 37.93724 | 23.95015 | 301 ft | 3 kts | 306° |
| 2026-05-05 19:08 | 37.93713 | 23.95033 | 301 ft | 3 kts | 301° |
| 2026-05-05 19:09 | 37.93707 | 23.95054 | 302 ft | 3 kts | 264° |
| 2026-05-05 19:09 | 37.93712 | 23.95076 | 300 ft | 3 kts | 228° |
| 2026-05-05 19:09 | 37.93719 | 23.95084 | 303 ft | 0 kts | 215° |
| 2026-05-05 19:12 | 37.93714 | 23.95084 | 300 ft | 1 kts | 189° |
| 2026-05-05 19:12 | 37.93701 | 23.95112 | 302 ft | 7 kts | 116° |
| 2026-05-05 19:13 | 37.93663 | 23.95200 | 301 ft | 16 kts | 127° |
| 2026-05-05 19:13 | 37.93561 | 23.95196 | 298 ft | 19 kts | 218° |
| 2026-05-05 19:13 | 37.93448 | 23.95086 | 300 ft | 22 kts | 219° |
| 2026-05-05 19:13 | 37.93321 | 23.94967 | 300 ft | 24 kts | 215° |
| 2026-05-05 19:14 | 37.93182 | 23.94835 | 300 ft | 26 kts | 214° |
| 2026-05-05 19:14 | 37.93031 | 23.94690 | 302 ft | 28 kts | 221° |
| 2026-05-05 19:14 | 37.92870 | 23.94544 | 302 ft | 26 kts | 217° |
| 2026-05-05 19:14 | 37.92723 | 23.94403 | 303 ft | 23 kts | 216° |
| 2026-05-05 19:15 | 37.92610 | 23.94297 | 304 ft | 13 kts | 213° |
| 2026-05-05 19:15 | 37.92535 | 23.94330 | 307 ft | 12 kts | 127° |
| 2026-05-05 19:15 | 37.92487 | 23.94416 | 309 ft | 12 kts | 107° |
| 2026-05-05 19:15 | 37.92531 | 23.94499 | 308 ft | 14 kts | 33° |
| 2026-05-05 19:16 | 37.92656 | 23.94616 | 305 ft | 46 kts | 35° |
| 2026-05-05 19:16 | 37.93102 | 23.95036 | 295 ft | 112 kts | 40° |
| 2026-05-05 19:16 | 37.93850 | 23.95734 | 434 ft | 142 kts | 35° |
| 2026-05-05 19:16 | 37.94615 | 23.96470 | 1103 ft | 134 kts | 37° |
| 2026-05-05 19:17 | 37.95336 | 23.97212 | 1611 ft | 136 kts | 39° |
| 2026-05-05 19:17 | 37.96160 | 23.98045 | 1848 ft | 162 kts | 36° |
| 2026-05-05 19:17 | 37.97037 | 23.99024 | 2293 ft | 178 kts | 56° |
| 2026-05-05 19:17 | 37.97540 | 24.00495 | 2779 ft | 191 kts | 68° |
| 2026-05-05 19:18 | 37.98080 | 24.02106 | 3209 ft | 208 kts | 65° |
| 2026-05-05 19:18 | 37.98706 | 24.03863 | 3702 ft | 227 kts | 64° |
| 2026-05-05 19:18 | 37.99387 | 24.05756 | 4302 ft | 245 kts | 63° |
| 2026-05-05 19:18 | 38.00118 | 24.07793 | 4946 ft | 262 kts | 63° |
| 2026-05-05 19:19 | 38.00878 | 24.09927 | 5809 ft | 268 kts | 63° |
| 2026-05-05 19:19 | 38.01641 | 24.12094 | 6644 ft | 269 kts | 63° |
| 2026-05-05 19:19 | 38.02397 | 24.14255 | 7491 ft | 272 kts | 63° |
| 2026-05-05 19:19 | 38.03281 | 24.16381 | 8417 ft | 271 kts | 49° |
| 2026-05-05 19:20 | 38.04682 | 24.17946 | 9338 ft | 269 kts | 26° |
| 2026-05-05 19:20 | 38.06457 | 24.18645 | 10206 ft | 270 kts | 4° |
| 2026-05-05 19:20 | 38.08324 | 24.18364 | 10934 ft | 277 kts | 343° |
| 2026-05-05 19:20 | 38.10185 | 24.17580 | 11385 ft | 294 kts | 342° |
| 2026-05-05 19:21 | 38.12172 | 24.16708 | 11787 ft | 311 kts | 342° |
| 2026-05-05 19:21 | 38.14268 | 24.15778 | 12284 ft | 322 kts | 341° |
| 2026-05-05 19:21 | 38.16403 | 24.14834 | 13009 ft | 327 kts | 341° |
| 2026-05-05 19:21 | 38.18560 | 24.13887 | 13780 ft | 330 kts | 341° |
| 2026-05-05 19:22 | 38.20715 | 24.12944 | 14460 ft | 333 kts | 341° |
| 2026-05-05 19:22 | 38.22911 | 24.11986 | 15147 ft | 335 kts | 341° |
| 2026-05-05 19:22 | 38.25125 | 24.11025 | 15835 ft | 337 kts | 341° |
| 2026-05-05 19:22 | 38.27352 | 24.10060 | 16516 ft | 339 kts | 341° |
| 2026-05-05 19:23 | 38.29593 | 24.09085 | 17204 ft | 341 kts | 341° |
| 2026-05-05 19:23 | 38.31823 | 24.08109 | 17880 ft | 343 kts | 341° |
| 2026-05-05 19:23 | 38.34091 | 24.07120 | 18545 ft | 345 kts | 340° |
| 2026-05-05 19:23 | 38.36372 | 24.06130 | 19156 ft | 348 kts | 340° |
| 2026-05-05 19:24 | 38.38673 | 24.05133 | 19789 ft | 350 kts | 340° |
| 2026-05-05 19:24 | 38.40987 | 24.04127 | 20426 ft | 352 kts | 340° |
| 2026-05-05 19:24 | 38.43316 | 24.03110 | 21034 ft | 355 kts | 340° |
| 2026-05-05 19:24 | 38.45627 | 24.02098 | 21621 ft | 357 kts | 339° |
| 2026-05-05 19:25 | 38.47989 | 24.01067 | 22190 ft | 360 kts | 339° |
| 2026-05-05 19:25 | 38.50365 | 24.00032 | 22785 ft | 362 kts | 339° |
| 2026-05-05 19:25 | 38.52761 | 23.98982 | 23356 ft | 365 kts | 339° |
| 2026-05-05 19:25 | 38.55148 | 23.97933 | 23883 ft | 367 kts | 339° |
| 2026-05-05 19:26 | 38.57572 | 23.96868 | 24383 ft | 369 kts | 339° |
| 2026-05-05 19:26 | 38.60009 | 23.95797 | 24865 ft | 370 kts | 339° |
| 2026-05-05 19:26 | 38.62450 | 23.94723 | 25364 ft | 371 kts | 339° |
| 2026-05-05 19:26 | 38.64897 | 23.93647 | 25850 ft | 373 kts | 339° |
| 2026-05-05 19:27 | 38.67358 | 23.92565 | 26316 ft | 374 kts | 339° |
| 2026-05-05 19:27 | 38.69825 | 23.91479 | 26758 ft | 376 kts | 339° |
| 2026-05-05 19:27 | 38.72300 | 23.90388 | 27188 ft | 377 kts | 339° |
| 2026-05-05 19:27 | 38.74788 | 23.89293 | 27607 ft | 379 kts | 339° |
| 2026-05-05 19:28 | 38.77254 | 23.88207 | 27960 ft | 380 kts | 339° |
| 2026-05-05 19:28 | 38.79744 | 23.87108 | 28056 ft | 372 kts | 339° |
| 2026-05-05 19:28 | 38.84540 | 23.84991 | 28062 ft | 364 kts | 339° |
| 2026-05-05 19:29 | 38.89333 | 23.82872 | 28062 ft | 365 kts | 339° |
| 2026-05-05 19:29 | 38.94131 | 23.80751 | 28055 ft | 365 kts | 339° |
| 2026-05-05 19:30 | 38.98932 | 23.78613 | 28050 ft | 365 kts | 339° |
| 2026-05-05 19:30 | 39.03699 | 23.76488 | 28045 ft | 365 kts | 339° |
| 2026-05-05 19:31 | 39.08502 | 23.74353 | 28034 ft | 365 kts | 339° |
| 2026-05-05 19:31 | 39.13313 | 23.72217 | 28026 ft | 365 kts | 339° |
| 2026-05-05 19:32 | 39.18120 | 23.70071 | 28022 ft | 366 kts | 339° |
| 2026-05-05 19:32 | 39.22932 | 23.67915 | 28020 ft | 366 kts | 339° |
| 2026-05-05 19:33 | 39.27750 | 23.65755 | 28020 ft | 367 kts | 339° |
| 2026-05-05 19:33 | 39.32541 | 23.63609 | 28031 ft | 367 kts | 339° |
| 2026-05-05 19:34 | 39.37366 | 23.61443 | 28038 ft | 367 kts | 339° |
| 2026-05-05 19:35 | 39.44606 | 23.58200 | 28039 ft | 367 kts | 339° |
| 2026-05-05 19:35 | 39.49432 | 23.56032 | 28043 ft | 367 kts | 339° |
| 2026-05-05 19:36 | 39.54260 | 23.53844 | 28049 ft | 368 kts | 339° |
| 2026-05-05 19:36 | 39.56650 | 23.52762 | 27834 ft | 360 kts | 339° |
| 2026-05-05 19:36 | 39.59009 | 23.51694 | 27575 ft | 359 kts | 339° |
| 2026-05-05 19:36 | 39.61368 | 23.50627 | 27317 ft | 358 kts | 339° |
| 2026-05-05 19:37 | 39.63686 | 23.49579 | 27059 ft | 357 kts | 339° |
| 2026-05-05 19:37 | 39.66031 | 23.48519 | 26807 ft | 356 kts | 339° |
| 2026-05-05 19:37 | 39.68369 | 23.47460 | 26553 ft | 356 kts | 339° |
| 2026-05-05 19:37 | 39.70700 | 23.46400 | 26300 ft | 355 kts | 339° |
| 2026-05-05 19:38 | 39.73029 | 23.45339 | 26053 ft | 354 kts | 339° |
| 2026-05-05 19:38 | 39.75351 | 23.44281 | 25802 ft | 353 kts | 339° |
| 2026-05-05 19:38 | 39.77672 | 23.43225 | 25549 ft | 353 kts | 339° |
| 2026-05-05 19:38 | 39.79988 | 23.42174 | 25310 ft | 352 kts | 339° |
| 2026-05-05 19:39 | 39.82301 | 23.41123 | 25078 ft | 352 kts | 339° |
| 2026-05-05 19:39 | 39.84611 | 23.40072 | 24840 ft | 351 kts | 339° |
| 2026-05-05 19:39 | 39.86915 | 23.39021 | 24595 ft | 350 kts | 339° |
| 2026-05-05 19:39 | 39.89186 | 23.37984 | 24353 ft | 343 kts | 339° |
| 2026-05-05 19:40 | 39.91393 | 23.36978 | 23986 ft | 339 kts | 340° |
| 2026-05-05 19:40 | 39.93607 | 23.35967 | 23602 ft | 335 kts | 340° |
| 2026-05-05 19:40 | 39.95794 | 23.34965 | 23176 ft | 331 kts | 340° |
| 2026-05-05 19:40 | 39.97951 | 23.33976 | 22784 ft | 326 kts | 340° |
| 2026-05-05 19:41 | 40.00074 | 23.33003 | 22406 ft | 321 kts | 340° |
| 2026-05-05 19:41 | 40.02172 | 23.32044 | 22019 ft | 317 kts | 340° |
| 2026-05-05 19:41 | 40.04242 | 23.31097 | 21619 ft | 314 kts | 340° |
| 2026-05-05 19:41 | 40.06296 | 23.30158 | 21235 ft | 312 kts | 340° |
| 2026-05-05 19:42 | 40.08345 | 23.29218 | 20834 ft | 311 kts | 340° |
| 2026-05-05 19:42 | 40.10380 | 23.28279 | 20438 ft | 310 kts | 340° |
| 2026-05-05 19:42 | 40.12412 | 23.27342 | 20008 ft | 309 kts | 340° |
| 2026-05-05 19:42 | 40.14429 | 23.26384 | 19571 ft | 309 kts | 336° |
| 2026-05-05 19:43 | 40.16293 | 23.25076 | 19124 ft | 309 kts | 329° |
| 2026-05-05 19:43 | 40.18131 | 23.23621 | 18683 ft | 309 kts | 330° |
| 2026-05-05 19:43 | 40.19970 | 23.22172 | 18224 ft | 309 kts | 330° |
| 2026-05-05 19:43 | 40.21811 | 23.20727 | 17742 ft | 308 kts | 330° |
| 2026-05-05 19:44 | 40.23644 | 23.19291 | 17297 ft | 307 kts | 330° |
| 2026-05-05 19:44 | 40.25471 | 23.17857 | 16851 ft | 305 kts | 330° |
| 2026-05-05 19:44 | 40.27290 | 23.16428 | 16415 ft | 304 kts | 330° |
| 2026-05-05 19:44 | 40.29102 | 23.15004 | 15977 ft | 303 kts | 330° |
| 2026-05-05 19:45 | 40.30907 | 23.13580 | 15546 ft | 303 kts | 330° |
| 2026-05-05 19:45 | 40.32684 | 23.12173 | 15114 ft | 302 kts | 330° |
| 2026-05-05 19:45 | 40.34482 | 23.10750 | 14695 ft | 302 kts | 330° |
| 2026-05-05 19:45 | 40.36283 | 23.09327 | 14263 ft | 302 kts | 330° |
| 2026-05-05 19:46 | 40.38085 | 23.07906 | 13835 ft | 302 kts | 330° |
| 2026-05-05 19:46 | 40.39887 | 23.06484 | 13370 ft | 302 kts | 330° |
| 2026-05-05 19:46 | 40.41683 | 23.05064 | 12943 ft | 300 kts | 330° |
| 2026-05-05 19:46 | 40.43467 | 23.03653 | 12528 ft | 299 kts | 330° |
| 2026-05-05 19:47 | 40.45243 | 23.02247 | 12117 ft | 298 kts | 330° |
| 2026-05-05 19:47 | 40.47014 | 23.00844 | 11704 ft | 297 kts | 330° |
| 2026-05-05 19:47 | 40.48776 | 22.99448 | 11294 ft | 296 kts | 330° |
| 2026-05-05 19:47 | 40.50535 | 22.98052 | 10900 ft | 294 kts | 329° |
| 2026-05-05 19:48 | 40.52284 | 22.96675 | 10508 ft | 293 kts | 331° |
| 2026-05-05 19:48 | 40.54043 | 22.95406 | 10153 ft | 290 kts | 333° |
| 2026-05-05 19:48 | 40.55820 | 22.94202 | 9927 ft | 284 kts | 334° |
| 2026-05-05 19:48 | 40.57565 | 22.93045 | 9788 ft | 282 kts | 334° |
| 2026-05-05 19:49 | 40.59321 | 22.91879 | 9350 ft | 283 kts | 334° |
| 2026-05-05 19:49 | 40.60490 | 22.91101 | 9023 ft | 285 kts | 334° |
| 2026-05-05 19:49 | 40.62834 | 22.89526 | 8490 ft | 283 kts | 333° |
| 2026-05-05 19:49 | 40.64578 | 22.88346 | 8163 ft | 279 kts | 333° |
| 2026-05-05 19:50 | 40.66285 | 22.87188 | 7540 ft | 275 kts | 333° |
| 2026-05-05 19:50 | 40.67977 | 22.86033 | 6933 ft | 271 kts | 332° |
| 2026-05-05 19:50 | 40.69630 | 22.84898 | 6463 ft | 264 kts | 332° |
| 2026-05-05 19:50 | 40.71315 | 22.83999 | 5831 ft | 262 kts | 351° |
| 2026-05-05 19:51 | 40.73060 | 22.84134 | 5503 ft | 250 kts | 17° |
| 2026-05-05 19:51 | 40.74513 | 22.85226 | 5274 ft | 236 kts | 47° |
| 2026-05-05 19:51 | 40.75157 | 22.87128 | 4955 ft | 228 kts | 88° |
| 2026-05-05 19:51 | 40.74723 | 22.89034 | 4616 ft | 218 kts | 131° |
| 2026-05-05 19:52 | 40.73565 | 22.90180 | 4303 ft | 204 kts | 162° |
| 2026-05-05 19:52 | 40.72242 | 22.90634 | 4014 ft | 192 kts | 169° |
| 2026-05-05 19:52 | 40.70962 | 22.91038 | 3721 ft | 186 kts | 169° |
| 2026-05-05 19:52 | 40.69727 | 22.91431 | 3415 ft | 181 kts | 168° |
| 2026-05-05 19:53 | 40.68521 | 22.91817 | 3127 ft | 175 kts | 168° |
| 2026-05-05 19:53 | 40.67366 | 22.92185 | 2836 ft | 163 kts | 168° |
| 2026-05-05 19:53 | 40.66336 | 22.92523 | 2600 ft | 148 kts | 167° |
| 2026-05-05 19:53 | 40.65341 | 22.92845 | 2405 ft | 148 kts | 168° |
| 2026-05-05 19:54 | 40.64362 | 22.93130 | 2270 ft | 139 kts | 170° |
| 2026-05-05 19:54 | 40.63419 | 22.93415 | 2141 ft | 139 kts | 168° |
| 2026-05-05 19:54 | 40.62483 | 22.93721 | 1984 ft | 138 kts | 167° |
| 2026-05-05 19:54 | 40.61551 | 22.94033 | 1799 ft | 138 kts | 167° |
| 2026-05-05 19:55 | 40.60625 | 22.94337 | 1588 ft | 137 kts | 167° |
| 2026-05-05 19:55 | 40.59701 | 22.94636 | 1390 ft | 137 kts | 167° |
| 2026-05-05 19:55 | 40.58777 | 22.94922 | 1174 ft | 137 kts | 165° |
| 2026-05-05 19:55 | 40.57865 | 22.95214 | 972 ft | 136 kts | 165° |
| 2026-05-05 19:56 | 40.56948 | 22.95504 | 847 ft | 136 kts | 163° |
| 2026-05-05 19:56 | 40.56028 | 22.95801 | 698 ft | 136 kts | 164° |
| 2026-05-05 19:56 | 40.55115 | 22.96089 | 513 ft | 134 kts | 161° |
| 2026-05-05 19:56 | 40.54205 | 22.96376 | 337 ft | 134 kts | 164° |
| 2026-05-05 19:57 | 40.53303 | 22.96679 | 145 ft | 134 kts | 163° |
| 2026-05-05 19:57 | 40.52706 | 22.96867 | 37 ft | 130 kts | 163° |
| 2026-05-05 19:57 | 40.51804 | 22.97153 | 28 ft | 48 kts | 166° |
| 2026-05-05 19:57 | 40.51585 | 22.97227 | 30 ft | 21 kts | 164° |
| 2026-05-05 19:58 | 40.51516 | 22.97350 | 29 ft | 16 kts | 65° |
| 2026-05-05 19:58 | 40.51612 | 22.97390 | 29 ft | 16 kts | 347° |
| 2026-05-05 19:58 | 40.51730 | 22.97353 | 29 ft | 19 kts | 347° |
| 2026-05-05 19:58 | 40.51871 | 22.97312 | 27 ft | 23 kts | 348° |
| 2026-05-05 19:59 | 40.52014 | 22.97255 | 27 ft | 20 kts | 2° |
| 2026-05-05 19:59 | 40.52157 | 22.97222 | 28 ft | 22 kts | 348° |
| 2026-05-05 19:59 | 40.52293 | 22.97178 | 28 ft | 14 kts | 345° |
| 2026-05-05 19:59 | 40.52377 | 22.97205 | 29 ft | 7 kts | 60° |
| 2026-05-05 20:00 | 40.52391 | 22.97260 | 29 ft | 1 kts | 73° |
| 2026-05-05 20:00 | 40.52395 | 22.97280 | 29 ft | 4 kts | 73° |
| 2026-05-05 20:00 | 40.52410 | 22.97326 | 29 ft | 7 kts | 53° |
| 2026-05-05 20:00 | 40.52426 | 22.97348 | 29 ft | 3 kts | 45° |
| 2026-05-05 20:01 | 40.52442 | 22.97370 | 29 ft | 3 kts | 45° |
| 2026-05-05 20:01 | 40.52456 | 22.97388 | 29 ft | 2 kts | 45° |
| 2026-05-05 20:01 | 40.52458 | 22.97390 | 29 ft | 0 kts | 45° |